Main page
METAR-TAF:

METAR-TAF

Airports :

Belgaum Airport

Belgaum, India

latitude: 15-51-33N, longitude: 74-37-03E, elevation: 758 m

Current weather observation

The report was made 44 minutes ago, at 13:00 UTC
Wind 8 kt from the East
Temperature 25°C
Humidity 54%
Pressure 1016 hPa
Visibility: 6000 m
Scattered clouds at a height of 1200 ft

METAR: VOBM 131300Z 09008KT 6000 SCT012 25/15 Q1016

Time: 19:14 (13:44 UTC)

Forecast

The report was made 5 hours and 44 minutes ago, at 08:00 UTC
Forecast valid from 13 at 09 UTC to 13 at 18 UTC
Wind 10 kt from the East
Visibility: 6000 m
Scattered clouds at a height of 1200 ft

TAF: VOBM 130800Z 1309/1318 09010KT 6000 SCT012

Weather observations and forecasts of more than 4000 airports (METAR and TAF reports).

The available stations are represented by yellow and red dots on the map.

Hover mouse over dot to see the name of the station.

Then click to see weather observations and forecasts.

To change the map : click on the green buttons with a black cross to zoom in, on the green button with a dash to zoom out, or on the green arrows for adjacent maps.


METAR-TAF: